Time;durP1;ratioP1;P1;durP2;ratioP2;P2;SDS_P1;SDS_P2;PMS_P1;PMS_P2;Temp;Humidity;BMP_temperature;BMP_pressure;BME280_temperature;BME280_humidity;BME280_pressure;Samples;Min_cycle;Max_cycle;Signal;HPM_P1;HPM_P2
2023/04/29 00:00:44;;;;;;;3.58;2.38;;;;;;;-143.29;100.00;62188.47;4897756;29;20025;-83
2023/04/29 00:03:10;;;;;;;3.63;2.10;;;;;;;-143.29;100.00;62188.47;4897134;29;20076;-83
2023/04/29 00:05:35;;;;;;;4.85;1.98;;;;;;;-143.29;100.00;62188.47;4894757;29;20490;-83
2023/04/29 00:08:00;;;;;;;5.57;2.40;;;;;;;-143.29;100.00;62188.47;4895169;29;20467;-83
2023/04/29 00:10:26;;;;;;;2.70;2.20;;;;;;;-143.29;100.00;62188.47;4894677;29;20032;-83
2023/04/29 00:12:51;;;;;;;4.60;2.15;;;;;;;-143.29;100.00;62188.47;4895089;29;20024;-83
2023/04/29 00:15:17;;;;;;;3.22;2.10;;;;;;;-143.29;100.00;62188.47;4897130;29;20467;-83
2023/04/29 00:17:43;;;;;;;2.33;1.77;;;;;;;-143.29;100.00;62188.47;4896299;29;20498;-83
2023/04/29 00:20:10;;;;;;;3.55;1.75;;;;;;;-143.29;100.00;62188.47;4893887;29;20032;-83
2023/04/29 00:22:35;;;;;;;3.03;2.05;;;;;;;-143.29;100.00;62188.47;4896805;29;20037;-83
2023/04/29 00:25:00;;;;;;;5.32;2.05;;;;;;;-143.29;100.00;62188.47;4895351;29;20035;-83
2023/04/29 00:27:26;;;;;;;3.25;2.25;;;;;;;-143.29;100.00;62188.47;4894454;29;20095;-82
2023/04/29 00:29:51;;;;;;;2.95;2.00;;;;;;;-143.29;100.00;62188.47;4896313;29;20028;-83
2023/04/29 00:32:17;;;;;;;2.33;2.00;;;;;;;-143.29;100.00;62188.47;4896185;29;20033;-83
2023/04/29 00:34:42;;;;;;;5.90;2.10;;;;;;;-143.29;100.00;62188.47;4895319;29;20071;-83
2023/04/29 00:37:07;;;;;;;2.65;1.90;;;;;;;-143.29;100.00;62188.47;4895201;29;20123;-83
2023/04/29 00:39:33;;;;;;;3.50;2.03;;;;;;;-143.29;100.00;62188.47;4895156;29;20072;-83
2023/04/29 00:41:59;;;;;;;5.25;2.10;;;;;;;-143.29;100.00;62188.47;4893394;29;20075;-83
2023/04/29 00:44:24;;;;;;;4.40;2.03;;;;;;;-143.29;100.00;62188.47;4895965;29;20035;-83
2023/04/29 00:46:50;;;;;;;4.53;1.90;;;;;;;-143.29;100.00;62188.47;4896159;29;20032;-83
2023/04/29 00:49:15;;;;;;;2.17;1.83;;;;;;;-143.29;100.00;62188.47;4895310;29;20479;-82
2023/04/29 00:51:41;;;;;;;4.25;2.47;;;;;;;-143.29;100.00;62188.47;4896045;29;20063;-82
2023/04/29 00:54:07;;;;;;;3.35;1.80;;;;;;;-143.29;100.00;62188.47;4896133;29;20392;-83
2023/04/29 00:56:34;;;;;;;3.03;1.70;;;;;;;-143.29;100.00;62188.47;4893090;29;20041;-83
2023/04/29 00:59:01;;;;;;;2.70;2.15;;;;;;;-143.29;100.00;62188.47;4895901;29;20033;-83
2023/04/29 01:01:27;;;;;;;3.28;2.00;;;;;;;-143.29;100.00;62188.47;4895182;29;20035;-83
2023/04/29 01:03:53;;;;;;;3.15;2.20;;;;;;;-143.29;100.00;62188.47;4893959;29;20033;-83
2023/04/29 01:06:52;;;;;;;2.92;2.10;;;;;;;-143.29;100.00;62188.47;4902030;29;20035;-83
2023/04/29 01:09:23;;;;;;;3.90;2.33;;;;;;;-143.29;100.00;62188.47;4894427;29;20639;-83
2023/04/29 01:12:26;;;;;;;3.53;2.25;;;;;;;-143.29;100.00;62188.47;4892966;29;20063;-83
2023/04/29 01:15:04;;;;;;;4.28;2.45;;;;;;;-143.29;100.00;62188.47;4887995;29;20084;-83
2023/04/29 01:17:35;;;;;;;2.80;2.30;;;;;;;-143.29;100.00;62188.47;4878824;29;20047;-83
2023/04/29 01:20:01;;;;;;;4.28;2.17;;;;;;;-143.29;100.00;62188.47;4896790;29;20032;-83
2023/04/29 01:22:26;;;;;;;2.70;2.08;;;;;;;-143.29;100.00;62188.47;4895813;29;20032;-83
2023/04/29 01:24:53;;;;;;;3.53;2.15;;;;;;;-143.29;100.00;62188.47;4895494;29;20872;-83
2023/04/29 01:27:34;;;;;;;2.50;2.25;;;;;;;-143.29;100.00;62188.47;4895508;29;20035;-83
2023/04/29 01:30:17;;;;;;;3.45;2.28;;;;;;;-143.29;100.00;62188.47;4892041;29;20040;-83
2023/04/29 01:33:20;;;;;;;6.03;2.50;;;;;;;-143.29;100.00;62188.47;4893750;29;20028;-83
2023/04/29 01:36:04;;;;;;;5.63;2.72;;;;;;;-143.29;100.00;62188.47;4893524;29;20043;-83
2023/04/29 01:38:59;;;;;;;4.82;2.72;;;;;;;-143.29;100.00;62188.47;4895438;29;20029;-83
2023/04/29 01:41:44;;;;;;;3.10;2.53;;;;;;;-143.29;100.00;62188.47;4894453;29;20076;-83
2023/04/29 01:44:17;;;;;;;5.13;3.30;;;;;;;-143.29;100.00;62188.47;4890272;29;20028;-83
2023/04/29 01:46:49;;;;;;;3.78;2.83;;;;;;;-143.29;100.00;62188.47;4895318;29;20042;-83
2023/04/29 01:49:14;;;;;;;3.20;2.60;;;;;;;-143.29;100.00;62188.47;4894157;29;20096;-83
2023/04/29 01:51:40;;;;;;;5.10;2.75;;;;;;;-143.29;100.00;62188.47;4895493;29;20040;-83
2023/04/29 01:54:05;;;;;;;3.25;2.60;;;;;;;-143.29;100.00;62188.47;4895639;29;20028;-83
2023/04/29 01:56:30;;;;;;;2.92;2.50;;;;;;;-143.29;100.00;62188.47;4894492;29;20041;-83
2023/04/29 01:58:56;;;;;;;4.47;3.00;;;;;;;-143.29;100.00;62188.47;4895512;29;20029;-83
2023/04/29 02:01:21;;;;;;;5.10;2.88;;;;;;;-143.29;100.00;62188.47;4895851;29;20039;-83
2023/04/29 02:03:46;;;;;;;5.47;3.08;;;;;;;-143.29;100.00;62188.47;4895410;29;20036;-83
2023/04/29 02:06:12;;;;;;;4.10;3.08;;;;;;;-143.29;100.00;62188.47;4894250;29;20033;-83
2023/04/29 02:08:37;;;;;;;3.30;2.47;;;;;;;-143.29;100.00;62188.47;4894140;29;20047;-83
2023/04/29 02:11:03;;;;;;;5.65;3.38;;;;;;;-143.29;100.00;62188.47;4894329;29;20164;-83
2023/04/29 02:13:28;;;;;;;5.75;3.00;;;;;;;-143.29;100.00;62188.47;4898054;29;20115;-83
2023/04/29 02:15:53;;;;;;;3.88;2.72;;;;;;;-143.29;100.00;62188.47;4897524;29;20173;-83
2023/04/29 02:18:19;;;;;;;3.80;3.17;;;;;;;-143.29;100.00;62188.47;4899110;29;20036;-83
2023/04/29 02:20:44;;;;;;;3.13;2.80;;;;;;;-143.29;100.00;62188.47;4898610;29;20483;-83
2023/04/29 02:23:10;;;;;;;4.50;3.00;;;;;;;-143.29;100.00;62188.47;4899225;29;20128;-83
2023/04/29 02:25:36;;;;;;;3.45;2.83;;;;;;;-143.29;100.00;62188.47;4897093;29;20032;-84
2023/04/29 02:28:02;;;;;;;2.78;2.38;;;;;;;-143.29;100.00;62188.47;4897705;29;20467;-83
2023/04/29 02:30:27;;;;;;;3.10;2.70;;;;;;;-143.29;100.00;62188.47;4895397;29;20032;-83
2023/04/29 02:32:53;;;;;;;3.05;2.60;;;;;;;-143.29;100.00;62188.47;4897569;29;20029;-83
2023/04/29 02:35:18;;;;;;;3.67;2.80;;;;;;;-143.29;100.00;62188.47;4897552;29;20028;-83
2023/04/29 02:37:44;;;;;;;3.40;2.85;;;;;;;-143.29;100.00;62188.47;4898050;29;20088;-83
2023/04/29 02:40:10;;;;;;;2.88;2.45;;;;;;;-143.29;100.00;62188.47;4896406;29;20020;-83
2023/04/29 02:42:35;;;;;;;2.80;2.60;;;;;;;-143.29;100.00;62188.47;4896652;29;20036;-83
2023/04/29 02:45:01;;;;;;;2.55;1.92;;;;;;;-143.29;100.00;62188.47;4897203;29;20028;-83
2023/04/29 02:47:26;;;;;;;9.38;2.45;;;;;;;-143.29;100.00;62188.47;4897890;29;20032;-83
2023/04/29 02:49:51;;;;;;;2.80;2.45;;;;;;;-143.29;100.00;62188.47;4895401;29;20484;-82
2023/04/29 02:52:17;;;;;;;2.70;2.28;;;;;;;-143.29;100.00;62188.47;4898351;29;20372;-83
2023/04/29 02:54:43;;;;;;;2.58;2.17;;;;;;;-143.29;100.00;62188.47;4897243;29;20107;-81
2023/04/29 02:57:09;;;;;;;2.92;2.13;;;;;;;-143.29;100.00;62188.47;4899229;29;20107;-82
2023/04/29 02:59:34;;;;;;;3.13;2.08;;;;;;;-143.29;100.00;62188.47;4897453;29;20025;-82
2023/04/29 03:02:00;;;;;;;2.65;2.20;;;;;;;-143.29;100.00;62188.47;4897781;29;20033;-82
2023/04/29 03:04:27;;;;;;;2.25;1.90;;;;;;;-143.29;100.00;62188.47;4895155;29;20032;-83
2023/04/29 03:06:55;;;;;;;2.35;2.05;;;;;;;-143.29;100.00;62188.47;4895305;29;20079;-82
2023/04/29 03:09:20;;;;;;;2.47;2.00;;;;;;;-143.29;100.00;62188.47;4895675;29;20028;-82
2023/04/29 03:11:46;;;;;;;2.53;2.30;;;;;;;-143.29;100.00;62188.47;4897057;29;20112;-82
2023/04/29 03:14:11;;;;;;;2.00;1.83;;;;;;;-143.29;100.00;62188.47;4897623;29;20044;-82
2023/04/29 03:16:37;;;;;;;1.80;1.70;;;;;;;-143.29;100.00;62188.47;4899114;29;20060;-82
2023/04/29 03:19:02;;;;;;;2.70;2.10;;;;;;;-143.29;100.00;62188.47;4896455;29;20036;-82
2023/04/29 03:21:28;;;;;;;2.22;1.88;;;;;;;-143.29;100.00;62188.47;4896436;29;20059;-83
2023/04/29 03:23:54;;;;;;;2.03;1.83;;;;;;;-143.29;100.00;62188.47;4896415;29;20017;-82
2023/04/29 03:26:21;;;;;;;2.15;1.80;;;;;;;-143.29;100.00;62188.47;4896741;29;20032;-82
2023/04/29 03:28:46;;;;;;;2.20;2.00;;;;;;;-143.29;100.00;62188.47;4897867;29;20036;-82
2023/04/29 03:31:15;;;;;;;2.10;1.90;;;;;;;-143.29;100.00;62188.47;4897290;29;20037;-82
2023/04/29 03:33:40;;;;;;;2.05;1.85;;;;;;;-143.29;100.00;62188.47;4895676;29;20076;-82
2023/04/29 03:36:07;;;;;;;2.47;1.58;;;;;;;-143.29;100.00;62188.47;4896130;29;20032;-82
2023/04/29 03:38:32;;;;;;;1.95;1.75;;;;;;;-143.29;100.00;62188.47;4896878;29;20033;-82
2023/04/29 03:40:58;;;;;;;1.70;1.58;;;;;;;-143.29;100.00;62188.47;4897126;29;20036;-82
2023/04/29 03:43:23;;;;;;;2.10;1.63;;;;;;;-143.29;100.00;62188.47;4893885;29;20033;-82
2023/04/29 03:45:49;;;;;;;1.85;1.52;;;;;;;-143.29;100.00;62188.47;4896139;29;20107;-81
2023/04/29 03:48:14;;;;;;;1.88;1.67;;;;;;;-143.29;100.00;62188.47;4897274;29;20399;-82
2023/04/29 03:50:39;;;;;;;2.17;1.98;;;;;;;-143.29;100.00;62188.47;4895843;29;20653;-82
2023/04/29 03:53:05;;;;;;;1.55;1.33;;;;;;;-143.29;100.00;62188.47;4896830;29;20037;-81
2023/04/29 03:55:30;;;;;;;1.50;1.40;;;;;;;-143.29;100.00;62188.47;4896993;29;20032;-82
2023/04/29 03:57:56;;;;;;;1.77;1.30;;;;;;;-143.29;100.00;62188.47;4896716;29;20040;-82
2023/04/29 04:00:21;;;;;;;2.45;1.83;;;;;;;-143.29;100.00;62188.47;4896051;29;20042;-82
2023/04/29 04:02:46;;;;;;;1.30;1.10;;;;;;;-143.29;100.00;62188.47;4896959;29;20032;-82
2023/04/29 04:05:12;;;;;;;1.40;1.30;;;;;;;-143.29;100.00;62188.47;4895860;29;20112;-82
2023/04/29 04:07:37;;;;;;;2.03;1.67;;;;;;;-143.29;100.00;62188.47;4896829;29;20060;-81
2023/04/29 04:10:03;;;;;;;1.77;1.52;;;;;;;-143.29;100.00;62188.47;4895616;29;20123;-82
2023/04/29 04:12:28;;;;;;;2.13;1.60;;;;;;;-143.29;100.00;62188.47;4896860;29;20108;-81
2023/04/29 04:14:54;;;;;;;1.60;1.50;;;;;;;-143.29;100.00;62188.47;4895008;29;20475;-82
2023/04/29 04:17:19;;;;;;;1.70;1.30;;;;;;;-143.29;100.00;62188.47;4896846;29;20036;-82
2023/04/29 04:19:45;;;;;;;1.88;1.60;;;;;;;-143.29;100.00;62188.47;4895528;29;20029;-82
2023/04/29 04:22:10;;;;;;;1.42;1.30;;;;;;;-143.29;100.00;62188.47;4894812;29;20156;-82
2023/04/29 04:24:36;;;;;;;1.65;1.25;;;;;;;-143.29;100.00;62188.47;4896497;29;20055;-82
2023/04/29 04:27:01;;;;;;;1.35;1.25;;;;;;;-143.29;100.00;62188.47;4896698;29;20032;-82
2023/04/29 04:29:26;;;;;;;1.90;1.30;;;;;;;-143.29;100.00;62188.47;4896328;29;20037;-82
2023/04/29 04:31:52;;;;;;;1.73;1.42;;;;;;;-143.29;100.00;62188.47;4896467;29;20088;-82
2023/04/29 04:34:17;;;;;;;1.75;1.48;;;;;;;-143.29;100.00;62188.47;4895044;29;20037;-82
2023/04/29 04:36:43;;;;;;;1.40;1.30;;;;;;;-143.29;100.00;62188.47;4894853;29;20029;-82
2023/04/29 04:39:08;;;;;;;2.30;1.73;;;;;;;-143.29;100.00;62188.47;4894683;29;20025;-82
2023/04/29 04:41:34;;;;;;;1.38;1.27;;;;;;;-143.29;100.00;62188.47;4896172;29;20495;-82
2023/04/29 04:43:59;;;;;;;2.05;1.60;;;;;;;-143.29;100.00;62188.47;4894750;29;20111;-82
2023/04/29 04:46:25;;;;;;;2.40;1.83;;;;;;;-143.29;100.00;62188.47;4895438;29;20074;-82
2023/04/29 04:48:50;;;;;;;4.20;1.58;;;;;;;-143.29;100.00;62188.47;4895219;29;20029;-82
2023/04/29 04:51:15;;;;;;;2.40;1.38;;;;;;;-143.29;100.00;62188.47;4894861;29;20036;-82
2023/04/29 04:53:41;;;;;;;2.22;1.70;;;;;;;-143.29;100.00;62188.47;4895170;29;20028;-82
2023/04/29 04:56:07;;;;;;;1.95;1.55;;;;;;;-143.29;100.00;62188.47;4897046;29;20035;-82
2023/04/29 04:58:32;;;;;;;2.03;1.60;;;;;;;-143.29;100.00;62188.47;4896022;29;20246;-82
2023/04/29 05:00:58;;;;;;;2.05;1.63;;;;;;;-143.29;100.00;62188.47;4894922;29;20283;-83
2023/04/29 05:03:24;;;;;;;2.40;2.00;;;;;;;-143.29;100.00;62188.47;4893976;29;20380;-82
2023/04/29 05:05:57;;;;;;;3.47;2.38;;;;;;;-143.29;100.00;62188.47;4894932;29;20479;-83
2023/04/29 05:08:22;;;;;;;2.47;2.00;;;;;;;-143.29;100.00;62188.47;4895017;29;20036;-83
2023/04/29 05:10:48;;;;;;;1.60;1.50;;;;;;;-143.29;100.00;62188.47;4895212;29;20035;-82
2023/04/29 05:13:13;;;;;;;2.13;1.92;;;;;;;-143.29;100.00;62188.47;4895437;29;20037;-82
2023/04/29 05:15:38;;;;;;;2.30;1.83;;;;;;;-143.29;100.00;62188.47;4896626;29;20041;-82
2023/04/29 05:18:04;;;;;;;2.08;1.88;;;;;;;-143.29;100.00;62188.47;4894772;29;20119;-82
2023/04/29 05:20:29;;;;;;;3.17;2.20;;;;;;;-143.29;100.00;62188.47;4896619;29;20033;-82
2023/04/29 05:22:55;;;;;;;2.30;1.85;;;;;;;-143.29;100.00;62188.47;4894722;29;20031;-82
2023/04/29 05:25:20;;;;;;;2.95;2.55;;;;;;;-143.29;100.00;62188.47;4894578;29;20581;-82
2023/04/29 05:27:46;;;;;;;5.32;1.83;;;;;;;-143.29;100.00;62188.47;4895769;29;20120;-82
2023/04/29 05:30:11;;;;;;;2.70;2.40;;;;;;;-143.29;100.00;62188.47;4893827;29;20483;-82
2023/04/29 05:32:37;;;;;;;3.05;2.63;;;;;;;-143.29;100.00;62188.47;4895648;29;20028;-82
2023/04/29 05:35:02;;;;;;;2.63;2.33;;;;;;;-143.29;100.00;62188.47;4894499;29;20063;-83
2023/04/29 05:37:30;;;;;;;3.35;3.05;;;;;;;-143.29;100.00;62188.47;4894500;29;20030;-82
2023/04/29 05:39:56;;;;;;;3.75;3.20;;;;;;;-143.29;100.00;62188.47;4895561;29;20020;-82
2023/04/29 05:42:22;;;;;;;3.92;3.00;;;;;;;-143.29;100.00;62188.47;4893801;29;20395;-82
2023/04/29 05:44:47;;;;;;;4.97;3.17;;;;;;;-143.29;100.00;62188.47;4895701;29;20032;-82
2023/04/29 05:47:13;;;;;;;3.63;3.03;;;;;;;-143.29;100.00;62188.47;4896841;29;20028;-82
2023/04/29 05:49:38;;;;;;;4.95;3.42;;;;;;;-143.29;100.00;62188.47;4898503;29;20037;-82
2023/04/29 05:52:05;;;;;;;3.75;3.22;;;;;;;-143.29;100.00;62188.47;4900135;29;20033;-82
2023/04/29 05:54:33;;;;;;;3.95;3.53;;;;;;;-143.29;100.00;62188.47;4898500;29;20020;-82
2023/04/29 05:57:04;;;;;;;4.40;3.80;;;;;;;-143.29;100.00;62188.47;4898039;29;20032;-82
2023/04/29 05:59:30;;;;;;;4.03;3.40;;;;;;;-143.29;100.00;62188.47;4899068;29;20025;-82
2023/04/29 06:01:56;;;;;;;4.57;3.38;;;;;;;-143.29;100.00;62188.47;4897195;29;20464;-82
2023/04/29 06:04:22;;;;;;;3.47;3.08;;;;;;;-143.29;100.00;62188.47;4898902;29;20036;-82
2023/04/29 06:06:47;;;;;;;3.92;3.30;;;;;;;-143.29;100.00;62188.47;4898058;29;20395;-82
2023/04/29 06:09:16;;;;;;;5.45;3.60;;;;;;;-143.29;100.00;62188.47;4898492;29;20396;-82
2023/04/29 06:11:43;;;;;;;4.25;3.47;;;;;;;-143.29;100.00;62188.47;4895959;29;20056;-82
2023/04/29 06:14:08;;;;;;;4.07;3.40;;;;;;;-143.29;100.00;62188.47;4898543;29;20399;-83
2023/04/29 06:16:33;;;;;;;4.53;3.05;;;;;;;-143.29;100.00;62188.47;4898298;29;20028;-84
2023/04/29 06:18:59;;;;;;;4.40;3.33;;;;;;;-143.29;100.00;62188.47;4897708;29;20033;-84
2023/04/29 06:21:26;;;;;;;4.05;3.50;;;;;;;-143.29;100.00;62188.47;4899279;29;20455;-84
2023/04/29 06:23:51;;;;;;;5.30;3.72;;;;;;;-143.29;100.00;62188.47;4898646;29;20055;-84
2023/04/29 06:26:17;;;;;;;3.30;2.97;;;;;;;-143.29;100.00;62188.47;4897860;29;20472;-83
2023/04/29 06:28:43;;;;;;;4.05;3.40;;;;;;;-143.29;100.00;62188.47;4897542;29;20502;-82
2023/04/29 06:31:08;;;;;;;3.78;3.38;;;;;;;-143.29;100.00;62188.47;4898767;29;20441;-82
2023/04/29 06:33:33;;;;;;;3.60;3.17;;;;;;;-143.29;100.00;62188.47;4898690;29;20063;-81
2023/04/29 06:35:59;;;;;;;5.13;3.55;;;;;;;-143.29;100.00;62188.47;4898864;29;20036;-81
2023/04/29 06:38:24;;;;;;;3.55;2.97;;;;;;;-143.29;100.00;62188.47;4896312;29;21540;-83
2023/04/29 06:40:49;;;;;;;3.80;3.15;;;;;;;-143.29;100.00;62188.47;4897996;29;20025;-83
2023/04/29 06:43:15;;;;;;;5.28;3.85;;;;;;;-143.29;100.00;62188.47;4895705;29;20032;-83
2023/04/29 06:45:41;;;;;;;5.10;3.60;;;;;;;-143.29;100.00;62188.47;4895074;29;20479;-83
2023/04/29 06:48:06;;;;;;;5.03;3.90;;;;;;;-143.29;100.00;62188.47;4896430;29;20029;-82
2023/04/29 06:50:32;;;;;;;4.68;3.83;;;;;;;-143.29;100.00;62188.47;4897697;29;20468;-82
2023/04/29 06:52:58;;;;;;;6.63;3.88;;;;;;;-143.29;100.00;62188.47;4897106;29;20040;-82
2023/04/29 06:55:23;;;;;;;6.35;4.07;;;;;;;-143.29;100.00;62188.47;4897061;29;20032;-82
2023/04/29 06:57:48;;;;;;;6.45;4.05;;;;;;;-143.29;100.00;62188.47;4894044;29;20381;-93
2023/04/29 07:00:15;;;;;;;4.82;3.55;;;;;;;-143.29;100.00;62188.47;4895977;29;20052;-89
2023/04/29 07:02:40;;;;;;;3.83;3.42;;;;;;;-143.29;100.00;62188.47;4894970;29;20063;-89
2023/04/29 07:05:06;;;;;;;9.20;3.90;;;;;;;-143.29;100.00;62188.47;4896358;29;20052;-85
2023/04/29 07:07:31;;;;;;;6.30;3.42;;;;;;;-143.29;100.00;62188.47;4895539;29;20089;-81
2023/04/29 07:09:57;;;;;;;5.13;4.10;;;;;;;-143.29;100.00;62188.47;4893958;29;20036;-81
2023/04/29 07:12:22;;;;;;;5.40;3.95;;;;;;;-143.29;100.00;62188.47;4896096;29;20033;-82
2023/04/29 07:14:47;;;;;;;6.18;4.47;;;;;;;-143.29;100.00;62188.47;4900987;29;20173;-82
2023/04/29 07:17:13;;;;;;;5.25;3.90;;;;;;;-143.29;100.00;62188.47;4896283;29;20475;-82
2023/04/29 07:19:38;;;;;;;8.88;4.15;;;;;;;-143.29;100.00;62188.47;4895786;29;20036;-82
2023/04/29 07:22:04;;;;;;;4.95;3.80;;;;;;;-143.29;100.00;62188.47;4894485;29;20028;-82
2023/04/29 07:24:29;;;;;;;7.70;3.95;;;;;;;-143.29;100.00;62188.47;4895897;29;20397;-82
2023/04/29 07:26:55;;;;;;;5.00;4.00;;;;;;;-143.29;100.00;62188.47;4895760;29;20039;-82
2023/04/29 07:29:20;;;;;;;5.18;3.97;;;;;;;-143.29;100.00;62188.47;4896542;29;20029;-83
2023/04/29 07:31:46;;;;;;;5.60;4.22;;;;;;;-143.29;100.00;62188.47;4897251;29;20012;-82
2023/04/29 07:34:11;;;;;;;4.20;3.75;;;;;;;-143.29;100.00;62188.47;4896366;29;20048;-83
2023/04/29 07:36:37;;;;;;;8.57;4.50;;;;;;;-143.29;100.00;62188.47;4894991;29;20108;-82
2023/04/29 07:39:02;;;;;;;19.08;3.97;;;;;;;-143.29;100.00;62188.47;4896631;29;20037;-81
2023/04/29 07:41:28;;;;;;;8.02;4.60;;;;;;;-143.29;100.00;62188.47;4896036;29;20088;-81
2023/04/29 07:43:53;;;;;;;5.10;4.07;;;;;;;-143.29;100.00;62188.47;4896207;29;20043;-82
2023/04/29 07:46:18;;;;;;;8.18;3.85;;;;;;;-143.29;100.00;62188.47;4895536;29;20045;-81
2023/04/29 07:48:44;;;;;;;7.50;3.83;;;;;;;-143.29;100.00;62188.47;4894775;29;20032;-82
2023/04/29 07:51:14;;;;;;;6.93;4.38;;;;;;;-143.29;100.00;62188.47;4895437;29;20119;-81
2023/04/29 07:53:40;;;;;;;11.20;5.75;;;;;;;-143.29;100.00;62188.47;4895593;29;20028;-81
2023/04/29 07:56:06;;;;;;;5.88;4.22;;;;;;;-143.29;100.00;62188.47;4895092;29;20557;-82
2023/04/29 07:58:31;;;;;;;7.72;5.15;;;;;;;-143.29;100.00;62188.47;4895362;29;20032;-82
2023/04/29 08:01:03;;;;;;;9.15;4.35;;;;;;;-143.29;100.00;62188.47;4893700;29;20031;-82
2023/04/29 08:03:29;;;;;;;6.25;4.50;;;;;;;-143.29;100.00;62188.47;4892366;29;20364;-82
2023/04/29 08:05:55;;;;;;;7.07;4.15;;;;;;;-143.29;100.00;62188.47;4894177;29;20040;-82
2023/04/29 08:08:20;;;;;;;8.55;5.13;;;;;;;-143.29;100.00;62188.47;4894178;29;20051;-81
2023/04/29 08:10:46;;;;;;;5.95;4.80;;;;;;;-143.29;100.00;62188.47;4895164;29;20028;-82
2023/04/29 08:13:11;;;;;;;6.15;4.35;;;;;;;-143.29;100.00;62188.47;4892226;29;20360;-81
2023/04/29 08:15:36;;;;;;;6.50;4.15;;;;;;;-143.29;100.00;62188.47;4895588;29;20025;-81
2023/04/29 08:18:02;;;;;;;6.50;3.40;;;;;;;-143.29;100.00;62188.47;4897796;29;20036;-81
2023/04/29 08:20:27;;;;;;;9.02;3.20;;;;;;;-143.29;100.00;62188.47;4895516;29;20082;-81
2023/04/29 08:22:53;;;;;;;7.22;4.10;;;;;;;-143.29;100.00;62188.47;4896438;29;20380;-82
2023/04/29 08:25:18;;;;;;;5.32;3.55;;;;;;;-143.29;100.00;62188.47;4896495;29;20115;-79
2023/04/29 08:27:44;;;;;;;5.60;3.35;;;;;;;-143.29;100.00;62188.47;4895629;29;20032;-79
2023/04/29 08:30:10;;;;;;;12.98;5.50;;;;;;;-143.29;100.00;62188.47;4891993;29;20036;-81
2023/04/29 08:32:35;;;;;;;8.32;4.07;;;;;;;-143.29;100.00;62188.47;4894224;29;20035;-81
2023/04/29 08:35:02;;;;;;;6.32;3.78;;;;;;;-143.29;100.00;62188.47;4894580;29;20033;-81
2023/04/29 08:37:27;;;;;;;6.22;3.30;;;;;;;-143.29;100.00;62188.47;4891325;29;20036;-81
2023/04/29 08:39:52;;;;;;;5.05;3.85;;;;;;;-143.29;100.00;62188.47;4894989;29;20021;-80
2023/04/29 08:42:29;;;;;;;6.05;4.10;;;;;;;-143.29;100.00;62188.47;4895397;29;20064;-79
2023/04/29 08:44:56;;;;;;;7.13;3.78;;;;;;;-143.29;100.00;62188.47;4891570;29;20461;-79
2023/04/29 08:47:22;;;;;;;7.85;5.07;;;;;;;-143.29;100.00;62188.47;4895602;29;20044;-79
2023/04/29 08:49:47;;;;;;;6.38;4.75;;;;;;;-143.29;100.00;62188.47;4892709;29;20080;-80
2023/04/29 08:52:13;;;;;;;7.78;4.82;;;;;;;-143.29;100.00;62188.47;4892117;29;20696;-80
2023/04/29 08:54:38;;;;;;;10.40;5.75;;;;;;;-143.29;100.00;62188.47;4893961;29;20035;-81
2023/04/29 08:57:05;;;;;;;7.53;4.50;;;;;;;-143.29;100.00;62188.47;4896461;29;20039;-81
2023/04/29 08:59:31;;;;;;;7.05;5.50;;;;;;;-143.29;100.00;62188.47;4895186;29;20479;-79
2023/04/29 09:01:57;;;;;;;6.20;4.65;;;;;;;-143.29;100.00;62188.47;4894942;29;20091;-80
2023/04/29 09:04:40;;;;;;;7.72;4.35;;;;;;;-143.29;100.00;62188.47;4893374;29;20027;-80
2023/04/29 09:07:06;;;;;;;6.82;5.03;;;;;;;-143.29;100.00;62188.47;4895288;29;20123;-80
2023/04/29 09:09:32;;;;;;;8.07;5.68;;;;;;;-143.29;100.00;62188.47;4895555;29;20501;-80
2023/04/29 09:11:57;;;;;;;9.68;6.35;;;;;;;-143.29;100.00;62188.47;4896129;29;20033;-83
2023/04/29 09:14:24;;;;;;;10.00;6.30;;;;;;;-143.29;100.00;62188.47;4894968;29;20028;-81
2023/04/29 09:16:50;;;;;;;8.20;6.03;;;;;;;-143.29;100.00;62188.47;4892552;29;20060;-80
2023/04/29 09:19:32;;;;;;;9.52;5.90;;;;;;;-143.29;100.00;62188.47;4892779;29;20666;-81
2023/04/29 09:21:58;;;;;;;11.38;7.07;;;;;;;-143.29;100.00;62188.47;4890183;29;20033;-82
2023/04/29 09:24:26;;;;;;;7.80;5.88;;;;;;;-143.29;100.00;62188.47;4894775;29;20092;-83
2023/04/29 09:26:52;;;;;;;9.75;6.75;;;;;;;-143.29;100.00;62188.47;4896610;29;20064;-81
2023/04/29 09:29:17;;;;;;;14.05;6.95;;;;;;;-143.29;100.00;62188.47;4895114;29;20067;-81
2023/04/29 09:31:44;;;;;;;10.93;6.75;;;;;;;-143.29;100.00;62188.47;4896558;29;20028;-82
2023/04/29 09:34:13;;;;;;;13.63;6.93;;;;;;;-143.29;100.00;62188.47;4893718;29;20032;-83
2023/04/29 09:36:46;;;;;;;11.02;6.95;;;;;;;-143.29;100.00;62188.47;4894773;29;20025;-82
2023/04/29 09:39:15;;;;;;;10.70;5.50;;;;;;;-143.29;100.00;62188.47;4892424;29;20040;-81
2023/04/29 09:41:55;;;;;;;11.98;6.50;;;;;;;-143.29;100.00;62188.47;4892108;29;20544;-83
2023/04/29 09:44:30;;;;;;;16.52;7.85;;;;;;;-143.29;100.00;62188.47;4890720;29;20495;-84
2023/04/29 09:46:57;;;;;;;9.63;6.70;;;;;;;-143.29;100.00;62188.47;4892264;29;20123;-81
2023/04/29 09:49:27;;;;;;;13.27;8.45;;;;;;;-143.29;100.00;62188.47;4896034;29;20081;-82
2023/04/29 09:51:53;;;;;;;10.50;7.35;;;;;;;-143.29;100.00;62188.47;4894031;29;20051;-83
2023/04/29 09:54:23;;;;;;;23.80;7.38;;;;;;;-143.29;100.00;62188.47;4895950;29;20063;-81
2023/04/29 09:56:50;;;;;;;13.13;7.43;;;;;;;-143.29;100.00;62188.47;4895700;29;20071;-81
2023/04/29 09:59:16;;;;;;;13.93;8.10;;;;;;;-143.29;100.00;62188.47;4895418;29;20440;-81
2023/04/29 10:01:42;;;;;;;13.75;7.82;;;;;;;-143.29;100.00;62188.47;4895582;29;20479;-84
2023/04/29 10:04:10;;;;;;;15.27;8.25;;;;;;;-143.29;100.00;62188.47;4895284;29;20033;-82
2023/04/29 10:06:39;;;;;;;15.23;8.77;;;;;;;-143.29;100.00;62188.47;4896185;29;20047;-83
2023/04/29 10:09:07;;;;;;;15.27;8.80;;;;;;;-143.29;100.00;62188.47;4893954;29;20119;-82
2023/04/29 10:11:33;;;;;;;17.00;8.82;;;;;;;-143.29;100.00;62188.47;4894771;29;20040;-82
2023/04/29 10:13:59;;;;;;;14.05;8.82;;;;;;;-143.29;100.00;62188.47;4889324;29;20079;-82
2023/04/29 10:16:30;;;;;;;15.10;9.23;;;;;;;-143.29;100.00;62188.47;4893531;29;20029;-80
2023/04/29 10:18:59;;;;;;;12.32;8.93;;;;;;;-143.29;100.00;62188.47;4894000;29;20025;-81
2023/04/29 10:21:32;;;;;;;14.18;8.88;;;;;;;-143.29;100.00;62188.47;4892679;29;20040;-81
2023/04/29 10:24:00;;;;;;;16.98;9.95;;;;;;;-143.29;100.00;62188.47;4877714;29;20388;-81
2023/04/29 10:26:28;;;;;;;14.10;9.30;;;;;;;-143.29;100.00;62188.47;4881620;29;20453;-81
2023/04/29 10:28:58;;;;;;;16.38;9.23;;;;;;;-143.29;100.00;62188.47;4892622;29;20027;-82
2023/04/29 10:31:29;;;;;;;12.48;8.18;;;;;;;-143.29;100.00;62188.47;4895623;29;20032;-85
2023/04/29 10:34:00;;;;;;;13.15;8.95;;;;;;;-143.29;100.00;62188.47;4899157;29;20096;-82
2023/04/29 10:36:29;;;;;;;18.08;9.23;;;;;;;-143.29;100.00;62188.47;4895905;29;20054;-82
2023/04/29 10:38:58;;;;;;;15.75;9.85;;;;;;;-143.29;100.00;62188.47;4885126;29;20036;-81
2023/04/29 10:41:41;;;;;;;21.88;10.32;;;;;;;-143.29;100.00;62188.47;4898231;29;20029;-82
2023/04/29 10:44:06;;;;;;;14.80;9.55;;;;;;;-143.29;100.00;62188.47;4897404;29;20204;-81
2023/04/29 10:46:32;;;;;;;16.00;9.75;;;;;;;-143.29;100.00;62188.47;4898606;29;20063;-80
2023/04/29 10:49:05;;;;;;;18.90;10.07;;;;;;;-143.29;100.00;62188.47;4899529;29;20037;-81
2023/04/29 10:51:38;;;;;;;15.43;8.35;;;;;;;-143.29;100.00;62188.47;4899144;29;20111;-87
2023/04/29 10:54:09;;;;;;;14.43;9.98;;;;;;;-143.29;100.00;62188.47;4897735;29;20369;-81
2023/04/29 10:56:39;;;;;;;18.75;10.98;;;;;;;-143.29;100.00;62188.47;4894384;29;20053;-82
2023/04/29 10:59:04;;;;;;;16.45;9.73;;;;;;;-143.29;100.00;62188.47;4896597;29;20044;-81
2023/04/29 11:01:46;;;;;;;23.13;9.80;;;;;;;-143.29;100.00;62188.47;4898590;29;20035;-82
2023/04/29 11:04:12;;;;;;;19.52;9.70;;;;;;;-143.29;100.00;62188.47;4894516;29;20037;-82
2023/04/29 11:06:44;;;;;;;15.35;8.68;;;;;;;-143.29;100.00;62188.47;4895806;29;20050;-83